sensor_id;sensor_type;location;lat;lon;timestamp;P1;durP1;ratioP1;P2;durP2;ratioP2
67869;SDS011;54673;52.262;6.830;2022-10-16T00:01:21;2.73;;;1.30;;
67869;SDS011;54673;52.262;6.830;2022-10-16T00:03:49;2.45;;;1.42;;
67869;SDS011;54673;52.262;6.830;2022-10-16T00:06:15;2.13;;;1.20;;
67869;SDS011;54673;52.262;6.830;2022-10-16T00:08:42;1.83;;;1.00;;
67869;SDS011;54673;52.262;6.830;2022-10-16T00:11:12;2.15;;;1.30;;
67869;SDS011;54673;52.262;6.830;2022-10-16T00:13:41;2.23;;;1.10;;
67869;SDS011;54673;52.262;6.830;2022-10-16T00:16:07;2.05;;;1.23;;
67869;SDS011;54673;52.262;6.830;2022-10-16T00:18:33;2.20;;;1.10;;
67869;SDS011;54673;52.262;6.830;2022-10-16T00:21:16;1.45;;;1.13;;
67869;SDS011;54673;52.262;6.830;2022-10-16T00:23:44;1.20;;;1.10;;
67869;SDS011;54673;52.262;6.830;2022-10-16T00:26:11;1.70;;;1.08;;
67869;SDS011;54673;52.262;6.830;2022-10-16T00:28:39;1.02;;;0.90;;
67869;SDS011;54673;52.262;6.830;2022-10-16T00:31:05;3.13;;;1.00;;
67869;SDS011;54673;52.262;6.830;2022-10-16T00:33:32;3.03;;;1.30;;
67869;SDS011;54673;52.262;6.830;2022-10-16T00:35:59;2.93;;;1.00;;
67869;SDS011;54673;52.262;6.830;2022-10-16T00:38:26;2.40;;;1.05;;
67869;SDS011;54673;52.262;6.830;2022-10-16T00:40:51;1.57;;;1.03;;
67869;SDS011;54673;52.262;6.830;2022-10-16T00:43:33;1.20;;;0.93;;
67869;SDS011;54673;52.262;6.830;2022-10-16T00:46:04;1.73;;;1.23;;
67869;SDS011;54673;52.262;6.830;2022-10-16T00:48:38;0.88;;;0.80;;
67869;SDS011;54673;52.262;6.830;2022-10-16T00:51:04;2.20;;;1.00;;
67869;SDS011;54673;52.262;6.830;2022-10-16T00:53:30;2.47;;;1.20;;
67869;SDS011;54673;52.262;6.830;2022-10-16T00:55:56;2.55;;;1.10;;
67869;SDS011;54673;52.262;6.830;2022-10-16T00:58:22;2.33;;;1.13;;
67869;SDS011;54673;52.262;6.830;2022-10-16T01:00:47;1.30;;;0.90;;
67869;SDS011;54673;52.262;6.830;2022-10-16T01:03:32;5.03;;;1.20;;
67869;SDS011;54673;52.262;6.830;2022-10-16T01:06:06;1.40;;;0.90;;
67869;SDS011;54673;52.262;6.830;2022-10-16T01:14:11;3.20;;;0.90;;
67869;SDS011;54673;52.262;6.830;2022-10-16T01:16:49;1.80;;;0.88;;
67869;SDS011;54673;52.262;6.830;2022-10-16T01:19:31;1.55;;;1.13;;
67869;SDS011;54673;52.262;6.830;2022-10-16T01:22:20;2.97;;;1.10;;
67869;SDS011;54673;52.262;6.830;2022-10-16T01:24:49;1.42;;;1.08;;
67869;SDS011;54673;52.262;6.830;2022-10-16T01:27:18;1.50;;;1.20;;
67869;SDS011;54673;52.262;6.830;2022-10-16T01:29:50;1.27;;;1.05;;
67869;SDS011;54673;52.262;6.830;2022-10-16T01:32:36;1.25;;;0.95;;
67869;SDS011;54673;52.262;6.830;2022-10-16T01:35:23;2.43;;;1.00;;
67869;SDS011;54673;52.262;6.830;2022-10-16T01:40:32;2.30;;;0.90;;
67869;SDS011;54673;52.262;6.830;2022-10-16T01:43:03;1.95;;;1.00;;
67869;SDS011;54673;52.262;6.830;2022-10-16T01:45:33;1.70;;;1.00;;
67869;SDS011;54673;52.262;6.830;2022-10-16T01:48:02;1.53;;;0.90;;
67869;SDS011;54673;52.262;6.830;2022-10-16T01:50:33;1.90;;;1.15;;
67869;SDS011;54673;52.262;6.830;2022-10-16T01:53:03;3.13;;;1.10;;
67869;SDS011;54673;52.262;6.830;2022-10-16T01:55:32;1.17;;;1.00;;
67869;SDS011;54673;52.262;6.830;2022-10-16T01:58:01;2.42;;;0.95;;
67869;SDS011;54673;52.262;6.830;2022-10-16T02:00:30;2.23;;;0.90;;
67869;SDS011;54673;52.262;6.830;2022-10-16T02:02:56;2.50;;;1.00;;
67869;SDS011;54673;52.262;6.830;2022-10-16T02:05:26;1.50;;;1.17;;
67869;SDS011;54673;52.262;6.830;2022-10-16T02:07:55;1.45;;;1.00;;
67869;SDS011;54673;52.262;6.830;2022-10-16T02:10:21;1.10;;;0.90;;
67869;SDS011;54673;52.262;6.830;2022-10-16T02:12:56;1.90;;;1.30;;
67869;SDS011;54673;52.262;6.830;2022-10-16T02:15:25;2.53;;;1.08;;
67869;SDS011;54673;52.262;6.830;2022-10-16T02:17:51;1.43;;;0.80;;
67869;SDS011;54673;52.262;6.830;2022-10-16T02:20:16;2.73;;;0.90;;
67869;SDS011;54673;52.262;6.830;2022-10-16T02:22:48;1.70;;;1.00;;
67869;SDS011;54673;52.262;6.830;2022-10-16T02:25:17;2.40;;;1.08;;
67869;SDS011;54673;52.262;6.830;2022-10-16T02:30:57;2.35;;;1.00;;
67869;SDS011;54673;52.262;6.830;2022-10-16T02:33:26;1.77;;;1.20;;
67869;SDS011;54673;52.262;6.830;2022-10-16T02:35:53;1.08;;;0.90;;
67869;SDS011;54673;52.262;6.830;2022-10-16T02:38:20;1.73;;;0.90;;
67869;SDS011;54673;52.262;6.830;2022-10-16T02:40:47;1.40;;;0.83;;
67869;SDS011;54673;52.262;6.830;2022-10-16T02:43:13;4.30;;;0.98;;
67869;SDS011;54673;52.262;6.830;2022-10-16T02:45:39;1.40;;;0.90;;
67869;SDS011;54673;52.262;6.830;2022-10-16T02:48:04;0.98;;;0.82;;
67869;SDS011;54673;52.262;6.830;2022-10-16T02:50:31;1.77;;;1.03;;
67869;SDS011;54673;52.262;6.830;2022-10-16T02:52:56;1.52;;;0.90;;
67869;SDS011;54673;52.262;6.830;2022-10-16T02:55:22;2.17;;;1.10;;
67869;SDS011;54673;52.262;6.830;2022-10-16T02:57:47;2.80;;;1.05;;
67869;SDS011;54673;52.262;6.830;2022-10-16T03:00:14;1.67;;;1.10;;
67869;SDS011;54673;52.262;6.830;2022-10-16T03:02:41;1.38;;;1.00;;
67869;SDS011;54673;52.262;6.830;2022-10-16T03:05:07;2.10;;;0.93;;
67869;SDS011;54673;52.262;6.830;2022-10-16T03:07:33;2.10;;;1.10;;
67869;SDS011;54673;52.262;6.830;2022-10-16T03:09:59;1.30;;;0.80;;
67869;SDS011;54673;52.262;6.830;2022-10-16T03:12:27;1.33;;;1.05;;
67869;SDS011;54673;52.262;6.830;2022-10-16T03:14:53;1.80;;;1.00;;
67869;SDS011;54673;52.262;6.830;2022-10-16T03:17:20;1.58;;;0.90;;
67869;SDS011;54673;52.262;6.830;2022-10-16T03:19:45;1.27;;;1.17;;
67869;SDS011;54673;52.262;6.830;2022-10-16T03:22:11;1.65;;;0.90;;
67869;SDS011;54673;52.262;6.830;2022-10-16T03:24:36;1.77;;;1.17;;
67869;SDS011;54673;52.262;6.830;2022-10-16T03:27:02;1.57;;;1.03;;
67869;SDS011;54673;52.262;6.830;2022-10-16T03:29:27;1.80;;;0.98;;
67869;SDS011;54673;52.262;6.830;2022-10-16T03:31:54;1.23;;;0.90;;
67869;SDS011;54673;52.262;6.830;2022-10-16T03:34:21;1.05;;;0.93;;
67869;SDS011;54673;52.262;6.830;2022-10-16T03:36:46;1.75;;;1.15;;
67869;SDS011;54673;52.262;6.830;2022-10-16T03:39:12;1.67;;;1.03;;
67869;SDS011;54673;52.262;6.830;2022-10-16T03:41:38;1.73;;;0.80;;
67869;SDS011;54673;52.262;6.830;2022-10-16T03:44:03;2.07;;;1.00;;
67869;SDS011;54673;52.262;6.830;2022-10-16T03:46:29;1.80;;;0.90;;
67869;SDS011;54673;52.262;6.830;2022-10-16T03:48:55;1.88;;;1.17;;
67869;SDS011;54673;52.262;6.830;2022-10-16T03:51:20;1.47;;;1.00;;
67869;SDS011;54673;52.262;6.830;2022-10-16T03:53:46;1.67;;;0.82;;
67869;SDS011;54673;52.262;6.830;2022-10-16T03:56:12;1.20;;;0.90;;
67869;SDS011;54673;52.262;6.830;2022-10-16T03:58:38;1.25;;;0.77;;
67869;SDS011;54673;52.262;6.830;2022-10-16T04:01:03;1.03;;;0.90;;
67869;SDS011;54673;52.262;6.830;2022-10-16T04:03:29;1.33;;;0.90;;
67869;SDS011;54673;52.262;6.830;2022-10-16T04:05:54;1.57;;;0.90;;
67869;SDS011;54673;52.262;6.830;2022-10-16T04:08:20;1.67;;;1.00;;
67869;SDS011;54673;52.262;6.830;2022-10-16T04:10:46;1.55;;;0.90;;
67869;SDS011;54673;52.262;6.830;2022-10-16T04:13:12;2.40;;;0.97;;
67869;SDS011;54673;52.262;6.830;2022-10-16T04:15:37;3.80;;;1.10;;
67869;SDS011;54673;52.262;6.830;2022-10-16T04:18:03;1.02;;;0.80;;
67869;SDS011;54673;52.262;6.830;2022-10-16T04:20:30;1.10;;;0.80;;
67869;SDS011;54673;52.262;6.830;2022-10-16T04:22:56;2.40;;;0.90;;
67869;SDS011;54673;52.262;6.830;2022-10-16T04:25:21;1.53;;;0.93;;
67869;SDS011;54673;52.262;6.830;2022-10-16T04:27:47;1.00;;;0.90;;
67869;SDS011;54673;52.262;6.830;2022-10-16T04:30:13;1.20;;;0.80;;
67869;SDS011;54673;52.262;6.830;2022-10-16T04:32:39;1.42;;;0.80;;
67869;SDS011;54673;52.262;6.830;2022-10-16T04:35:05;2.20;;;0.80;;
67869;SDS011;54673;52.262;6.830;2022-10-16T04:37:31;0.95;;;0.85;;
67869;SDS011;54673;52.262;6.830;2022-10-16T04:39:57;2.30;;;1.07;;
67869;SDS011;54673;52.262;6.830;2022-10-16T04:42:23;1.25;;;0.80;;
67869;SDS011;54673;52.262;6.830;2022-10-16T04:44:48;1.00;;;0.90;;
67869;SDS011;54673;52.262;6.830;2022-10-16T04:47:14;2.67;;;0.80;;
67869;SDS011;54673;52.262;6.830;2022-10-16T04:49:39;1.97;;;1.20;;
67869;SDS011;54673;52.262;6.830;2022-10-16T04:52:05;1.00;;;0.90;;
67869;SDS011;54673;52.262;6.830;2022-10-16T04:54:31;1.70;;;0.90;;
67869;SDS011;54673;52.262;6.830;2022-10-16T04:56:57;1.10;;;0.88;;
67869;SDS011;54673;52.262;6.830;2022-10-16T04:59:22;1.07;;;0.80;;
67869;SDS011;54673;52.262;6.830;2022-10-16T05:01:48;0.82;;;0.60;;
67869;SDS011;54673;52.262;6.830;2022-10-16T05:04:14;1.83;;;0.83;;
67869;SDS011;54673;52.262;6.830;2022-10-16T05:06:41;1.45;;;0.80;;
67869;SDS011;54673;52.262;6.830;2022-10-16T05:09:07;1.00;;;0.80;;
67869;SDS011;54673;52.262;6.830;2022-10-16T05:11:34;1.17;;;0.70;;
67869;SDS011;54673;52.262;6.830;2022-10-16T05:13:59;0.88;;;0.77;;
67869;SDS011;54673;52.262;6.830;2022-10-16T05:16:25;2.07;;;0.90;;
67869;SDS011;54673;52.262;6.830;2022-10-16T05:18:51;0.98;;;0.70;;
67869;SDS011;54673;52.262;6.830;2022-10-16T05:21:17;0.97;;;0.80;;
67869;SDS011;54673;52.262;6.830;2022-10-16T05:23:43;1.63;;;0.90;;
67869;SDS011;54673;52.262;6.830;2022-10-16T05:26:08;1.30;;;0.80;;
67869;SDS011;54673;52.262;6.830;2022-10-16T05:28:34;1.50;;;0.77;;
67869;SDS011;54673;52.262;6.830;2022-10-16T05:31:03;1.70;;;0.85;;
67869;SDS011;54673;52.262;6.830;2022-10-16T05:33:31;1.50;;;0.80;;
67869;SDS011;54673;52.262;6.830;2022-10-16T05:35:57;0.90;;;0.70;;
67869;SDS011;54673;52.262;6.830;2022-10-16T05:38:27;1.73;;;0.70;;
67869;SDS011;54673;52.262;6.830;2022-10-16T05:40:53;1.20;;;0.80;;
67869;SDS011;54673;52.262;6.830;2022-10-16T05:43:19;0.80;;;0.70;;
67869;SDS011;54673;52.262;6.830;2022-10-16T05:45:52;1.57;;;0.93;;
67869;SDS011;54673;52.262;6.830;2022-10-16T05:48:25;2.10;;;0.80;;
67869;SDS011;54673;52.262;6.830;2022-10-16T05:51:05;1.00;;;0.90;;
67869;SDS011;54673;52.262;6.830;2022-10-16T05:53:33;0.77;;;0.77;;
67869;SDS011;54673;52.262;6.830;2022-10-16T05:55:59;2.20;;;0.90;;
67869;SDS011;54673;52.262;6.830;2022-10-16T05:58:28;1.23;;;0.70;;
67869;SDS011;54673;52.262;6.830;2022-10-16T06:00:56;0.80;;;0.70;;
67869;SDS011;54673;52.262;6.830;2022-10-16T06:03:23;0.90;;;0.70;;
67869;SDS011;54673;52.262;6.830;2022-10-16T06:05:49;1.13;;;0.73;;
67869;SDS011;54673;52.262;6.830;2022-10-16T06:08:14;1.50;;;0.90;;
67869;SDS011;54673;52.262;6.830;2022-10-16T06:10:40;1.13;;;0.60;;
67869;SDS011;54673;52.262;6.830;2022-10-16T06:13:05;2.60;;;0.90;;
67869;SDS011;54673;52.262;6.830;2022-10-16T06:15:31;0.93;;;0.80;;
67869;SDS011;54673;52.262;6.830;2022-10-16T06:17:56;1.20;;;0.70;;
67869;SDS011;54673;52.262;6.830;2022-10-16T06:20:22;1.00;;;0.80;;
67869;SDS011;54673;52.262;6.830;2022-10-16T06:22:48;1.27;;;1.00;;
67869;SDS011;54673;52.262;6.830;2022-10-16T06:25:13;1.00;;;0.80;;
67869;SDS011;54673;52.262;6.830;2022-10-16T06:27:39;1.13;;;0.70;;
67869;SDS011;54673;52.262;6.830;2022-10-16T06:30:05;0.90;;;0.75;;
67869;SDS011;54673;52.262;6.830;2022-10-16T06:32:32;1.02;;;0.70;;
67869;SDS011;54673;52.262;6.830;2022-10-16T06:34:57;1.30;;;0.70;;
67869;SDS011;54673;52.262;6.830;2022-10-16T06:37:23;1.10;;;0.90;;
67869;SDS011;54673;52.262;6.830;2022-10-16T06:39:49;0.98;;;0.88;;
67869;SDS011;54673;52.262;6.830;2022-10-16T06:42:17;1.40;;;0.80;;
67869;SDS011;54673;52.262;6.830;2022-10-16T06:44:43;1.13;;;0.90;;
67869;SDS011;54673;52.262;6.830;2022-10-16T06:47:08;1.70;;;0.73;;
67869;SDS011;54673;52.262;6.830;2022-10-16T06:49:34;1.00;;;0.73;;
67869;SDS011;54673;52.262;6.830;2022-10-16T06:52:00;1.45;;;1.00;;
67869;SDS011;54673;52.262;6.830;2022-10-16T06:54:26;1.73;;;0.70;;
67869;SDS011;54673;52.262;6.830;2022-10-16T06:56:52;1.85;;;0.68;;
67869;SDS011;54673;52.262;6.830;2022-10-16T06:59:21;1.45;;;0.70;;
67869;SDS011;54673;52.262;6.830;2022-10-16T07:01:46;1.20;;;0.77;;
67869;SDS011;54673;52.262;6.830;2022-10-16T07:04:13;1.33;;;0.70;;
67869;SDS011;54673;52.262;6.830;2022-10-16T07:06:38;1.60;;;0.77;;
67869;SDS011;54673;52.262;6.830;2022-10-16T07:09:05;1.37;;;0.90;;
67869;SDS011;54673;52.262;6.830;2022-10-16T07:11:32;2.35;;;0.98;;
67869;SDS011;54673;52.262;6.830;2022-10-16T07:13:58;1.30;;;0.70;;
67869;SDS011;54673;52.262;6.830;2022-10-16T07:16:25;1.27;;;0.70;;
67869;SDS011;54673;52.262;6.830;2022-10-16T07:18:53;1.00;;;0.70;;
67869;SDS011;54673;52.262;6.830;2022-10-16T07:21:26;1.73;;;1.17;;
67869;SDS011;54673;52.262;6.830;2022-10-16T07:23:54;0.93;;;0.70;;
67869;SDS011;54673;52.262;6.830;2022-10-16T07:26:26;1.15;;;0.70;;
67869;SDS011;54673;52.262;6.830;2022-10-16T07:28:53;0.97;;;0.90;;
67869;SDS011;54673;52.262;6.830;2022-10-16T07:31:19;0.90;;;0.80;;
67869;SDS011;54673;52.262;6.830;2022-10-16T07:33:46;1.43;;;1.00;;
67869;SDS011;54673;52.262;6.830;2022-10-16T07:36:13;1.00;;;0.65;;
67869;SDS011;54673;52.262;6.830;2022-10-16T07:38:43;2.72;;;1.00;;
67869;SDS011;54673;52.262;6.830;2022-10-16T07:41:11;2.57;;;0.70;;
67869;SDS011;54673;52.262;6.830;2022-10-16T07:43:48;1.42;;;0.95;;
67869;SDS011;54673;52.262;6.830;2022-10-16T07:46:15;1.00;;;0.80;;
67869;SDS011;54673;52.262;6.830;2022-10-16T07:48:41;1.23;;;0.70;;
67869;SDS011;54673;52.262;6.830;2022-10-16T07:51:11;2.42;;;0.90;;
67869;SDS011;54673;52.262;6.830;2022-10-16T07:53:37;6.63;;;1.03;;
67869;SDS011;54673;52.262;6.830;2022-10-16T07:56:04;1.58;;;0.80;;
67869;SDS011;54673;52.262;6.830;2022-10-16T07:58:31;1.00;;;0.90;;
67869;SDS011;54673;52.262;6.830;2022-10-16T08:00:58;1.70;;;1.08;;
67869;SDS011;54673;52.262;6.830;2022-10-16T08:03:28;2.40;;;1.57;;
67869;SDS011;54673;52.262;6.830;2022-10-16T08:05:53;1.73;;;1.02;;
67869;SDS011;54673;52.262;6.830;2022-10-16T08:08:21;3.20;;;1.10;;
67869;SDS011;54673;52.262;6.830;2022-10-16T08:10:47;1.80;;;1.10;;
67869;SDS011;54673;52.262;6.830;2022-10-16T08:13:12;3.47;;;1.43;;
67869;SDS011;54673;52.262;6.830;2022-10-16T08:15:39;5.82;;;1.40;;
67869;SDS011;54673;52.262;6.830;2022-10-16T08:18:09;2.23;;;1.40;;
67869;SDS011;54673;52.262;6.830;2022-10-16T08:20:35;2.40;;;1.40;;
67869;SDS011;54673;52.262;6.830;2022-10-16T08:23:01;2.38;;;1.63;;
67869;SDS011;54673;52.262;6.830;2022-10-16T08:25:27;5.03;;;2.03;;
67869;SDS011;54673;52.262;6.830;2022-10-16T08:27:53;3.70;;;1.92;;
67869;SDS011;54673;52.262;6.830;2022-10-16T08:30:19;3.83;;;1.80;;
67869;SDS011;54673;52.262;6.830;2022-10-16T08:32:46;3.25;;;1.70;;
67869;SDS011;54673;52.262;6.830;2022-10-16T08:35:12;3.37;;;1.70;;
67869;SDS011;54673;52.262;6.830;2022-10-16T08:37:39;4.20;;;1.60;;
67869;SDS011;54673;52.262;6.830;2022-10-16T08:40:05;2.37;;;1.47;;
67869;SDS011;54673;52.262;6.830;2022-10-16T08:42:47;3.33;;;1.50;;
67869;SDS011;54673;52.262;6.830;2022-10-16T08:45:21;2.58;;;1.58;;
67869;SDS011;54673;52.262;6.830;2022-10-16T08:48:20;4.83;;;2.00;;
67869;SDS011;54673;52.262;6.830;2022-10-16T08:51:04;2.97;;;1.83;;
67869;SDS011;54673;52.262;6.830;2022-10-16T08:53:43;2.87;;;1.63;;
67869;SDS011;54673;52.262;6.830;2022-10-16T08:56:13;2.65;;;1.60;;
67869;SDS011;54673;52.262;6.830;2022-10-16T08:58:39;3.58;;;1.70;;
67869;SDS011;54673;52.262;6.830;2022-10-16T09:01:09;2.53;;;1.57;;
67869;SDS011;54673;52.262;6.830;2022-10-16T09:11:55;2.63;;;1.60;;
67869;SDS011;54673;52.262;6.830;2022-10-16T09:14:56;2.67;;;1.70;;
67869;SDS011;54673;52.262;6.830;2022-10-16T09:17:38;3.63;;;1.50;;
67869;SDS011;54673;52.262;6.830;2022-10-16T09:23:14;2.88;;;1.67;;
67869;SDS011;54673;52.262;6.830;2022-10-16T09:25:42;2.30;;;1.60;;
67869;SDS011;54673;52.262;6.830;2022-10-16T09:28:10;2.83;;;1.90;;
67869;SDS011;54673;52.262;6.830;2022-10-16T09:30:36;4.47;;;1.83;;
67869;SDS011;54673;52.262;6.830;2022-10-16T09:33:03;2.93;;;1.80;;
67869;SDS011;54673;52.262;6.830;2022-10-16T09:35:32;2.88;;;1.90;;
67869;SDS011;54673;52.262;6.830;2022-10-16T09:38:02;3.63;;;1.80;;
67869;SDS011;54673;52.262;6.830;2022-10-16T09:40:31;3.65;;;1.80;;
67869;SDS011;54673;52.262;6.830;2022-10-16T09:45:59;2.40;;;1.67;;
67869;SDS011;54673;52.262;6.830;2022-10-16T09:48:28;3.08;;;1.70;;
67869;SDS011;54673;52.262;6.830;2022-10-16T09:51:19;2.40;;;1.60;;
67869;SDS011;54673;52.262;6.830;2022-10-16T09:53:54;2.78;;;1.70;;
67869;SDS011;54673;52.262;6.830;2022-10-16T09:56:37;9.57;;;3.37;;
67869;SDS011;54673;52.262;6.830;2022-10-16T09:59:11;2.47;;;1.58;;
67869;SDS011;54673;52.262;6.830;2022-10-16T10:04:05;3.53;;;1.63;;
67869;SDS011;54673;52.262;6.830;2022-10-16T10:06:41;2.92;;;1.80;;
67869;SDS011;54673;52.262;6.830;2022-10-16T10:09:15;3.13;;;1.93;;
67869;SDS011;54673;52.262;6.830;2022-10-16T10:11:50;2.97;;;1.90;;
67869;SDS011;54673;52.262;6.830;2022-10-16T10:19:42;2.53;;;1.75;;
67869;SDS011;54673;52.262;6.830;2022-10-16T10:22:31;2.80;;;1.90;;
67869;SDS011;54673;52.262;6.830;2022-10-16T10:33:16;2.83;;;1.70;;
67869;SDS011;54673;52.262;6.830;2022-10-16T10:35:56;3.50;;;1.57;;
67869;SDS011;54673;52.262;6.830;2022-10-16T10:42:00;2.45;;;1.80;;
67869;SDS011;54673;52.262;6.830;2022-10-16T10:47:27;3.03;;;1.63;;
67869;SDS011;54673;52.262;6.830;2022-10-16T10:55:33;3.00;;;1.73;;
67869;SDS011;54673;52.262;6.830;2022-10-16T11:06:47;5.00;;;2.08;;
67869;SDS011;54673;52.262;6.830;2022-10-16T11:09:18;4.68;;;2.05;;
67869;SDS011;54673;52.262;6.830;2022-10-16T11:11:48;3.13;;;1.60;;
67869;SDS011;54673;52.262;6.830;2022-10-16T11:14:23;2.58;;;1.42;;
67869;SDS011;54673;52.262;6.830;2022-10-16T11:17:04;4.47;;;1.70;;
67869;SDS011;54673;52.262;6.830;2022-10-16T11:19:48;3.03;;;1.40;;
67869;SDS011;54673;52.262;6.830;2022-10-16T11:22:29;3.13;;;1.55;;
67869;SDS011;54673;52.262;6.830;2022-10-16T11:25:11;3.43;;;1.60;;
67869;SDS011;54673;52.262;6.830;2022-10-16T11:30:08;2.70;;;1.40;;
67869;SDS011;54673;52.262;6.830;2022-10-16T11:43:49;2.70;;;1.30;;
67869;SDS011;54673;52.262;6.830;2022-10-16T11:46:30;4.25;;;1.65;;
67869;SDS011;54673;52.262;6.830;2022-10-16T11:51:42;6.07;;;1.57;;
67869;SDS011;54673;52.262;6.830;2022-10-16T11:54:43;5.68;;;1.88;;
67869;SDS011;54673;52.262;6.830;2022-10-16T11:57:20;4.27;;;1.90;;
67869;SDS011;54673;52.262;6.830;2022-10-16T11:59:54;2.17;;;1.27;;
67869;SDS011;54673;52.262;6.830;2022-10-16T12:02:26;4.07;;;1.63;;
67869;SDS011;54673;52.262;6.830;2022-10-16T12:05:06;4.60;;;1.50;;
67869;SDS011;54673;52.262;6.830;2022-10-16T12:07:54;3.42;;;1.75;;
67869;SDS011;54673;52.262;6.830;2022-10-16T12:10:28;4.30;;;1.70;;
67869;SDS011;54673;52.262;6.830;2022-10-16T12:12:57;4.97;;;1.80;;
67869;SDS011;54673;52.262;6.830;2022-10-16T12:17:48;3.07;;;1.60;;
67869;SDS011;54673;52.262;6.830;2022-10-16T12:30:33;3.95;;;1.25;;
67869;SDS011;54673;52.262;6.830;2022-10-16T12:33:22;6.45;;;1.50;;
67869;SDS011;54673;52.262;6.830;2022-10-16T12:35:46;6.43;;;1.50;;
67869;SDS011;54673;52.262;6.830;2022-10-16T12:38:16;4.22;;;1.55;;
67869;SDS011;54673;52.262;6.830;2022-10-16T12:40:55;4.27;;;1.70;;
67869;SDS011;54673;52.262;6.830;2022-10-16T12:43:27;5.60;;;1.20;;
67869;SDS011;54673;52.262;6.830;2022-10-16T12:46:03;6.22;;;1.38;;
67869;SDS011;54673;52.262;6.830;2022-10-16T12:48:45;4.03;;;1.20;;
67869;SDS011;54673;52.262;6.830;2022-10-16T12:51:34;4.05;;;1.30;;
67869;SDS011;54673;52.262;6.830;2022-10-16T12:54:02;3.33;;;1.43;;
67869;SDS011;54673;52.262;6.830;2022-10-16T13:17:39;3.40;;;1.30;;
67869;SDS011;54673;52.262;6.830;2022-10-16T13:20:20;2.00;;;1.13;;
67869;SDS011;54673;52.262;6.830;2022-10-16T13:23:03;3.45;;;1.15;;
67869;SDS011;54673;52.262;6.830;2022-10-16T13:28:27;4.17;;;1.10;;
67869;SDS011;54673;52.262;6.830;2022-10-16T13:30:59;3.63;;;1.20;;
67869;SDS011;54673;52.262;6.830;2022-10-16T13:33:36;2.30;;;1.37;;
67869;SDS011;54673;52.262;6.830;2022-10-16T13:36:04;5.97;;;1.30;;
67869;SDS011;54673;52.262;6.830;2022-10-16T13:38:32;4.93;;;1.30;;
67869;SDS011;54673;52.262;6.830;2022-10-16T13:41:01;2.57;;;1.10;;
67869;SDS011;54673;52.262;6.830;2022-10-16T13:43:49;4.13;;;1.40;;
67869;SDS011;54673;52.262;6.830;2022-10-16T13:48:43;2.75;;;1.08;;
67869;SDS011;54673;52.262;6.830;2022-10-16T13:51:16;3.72;;;1.60;;
67869;SDS011;54673;52.262;6.830;2022-10-16T13:53:43;3.13;;;1.40;;
67869;SDS011;54673;52.262;6.830;2022-10-16T13:56:12;6.00;;;1.85;;
67869;SDS011;54673;52.262;6.830;2022-10-16T13:58:43;3.77;;;1.63;;
67869;SDS011;54673;52.262;6.830;2022-10-16T14:01:19;2.88;;;1.40;;
67869;SDS011;54673;52.262;6.830;2022-10-16T14:03:48;2.00;;;1.25;;
67869;SDS011;54673;52.262;6.830;2022-10-16T14:06:16;2.63;;;1.17;;
67869;SDS011;54673;52.262;6.830;2022-10-16T14:08:48;2.75;;;1.23;;
67869;SDS011;54673;52.262;6.830;2022-10-16T14:11:21;2.67;;;1.03;;
67869;SDS011;54673;52.262;6.830;2022-10-16T14:13:50;2.43;;;1.33;;
67869;SDS011;54673;52.262;6.830;2022-10-16T14:16:18;2.45;;;1.40;;
67869;SDS011;54673;52.262;6.830;2022-10-16T14:18:55;3.30;;;1.53;;
67869;SDS011;54673;52.262;6.830;2022-10-16T14:21:24;3.22;;;1.23;;
67869;SDS011;54673;52.262;6.830;2022-10-16T14:23:51;3.03;;;1.27;;
67869;SDS011;54673;52.262;6.830;2022-10-16T14:26:18;1.97;;;1.23;;
67869;SDS011;54673;52.262;6.830;2022-10-16T14:28:47;1.92;;;1.15;;
67869;SDS011;54673;52.262;6.830;2022-10-16T14:31:29;3.93;;;1.37;;
67869;SDS011;54673;52.262;6.830;2022-10-16T14:33:57;1.55;;;1.15;;
67869;SDS011;54673;52.262;6.830;2022-10-16T14:36:23;2.03;;;1.10;;
67869;SDS011;54673;52.262;6.830;2022-10-16T14:41:43;2.92;;;1.00;;
67869;SDS011;54673;52.262;6.830;2022-10-16T14:44:11;1.98;;;1.10;;
67869;SDS011;54673;52.262;6.830;2022-10-16T14:46:38;2.43;;;1.30;;
67869;SDS011;54673;52.262;6.830;2022-10-16T14:51:35;1.80;;;0.93;;
67869;SDS011;54673;52.262;6.830;2022-10-16T14:54:02;2.08;;;1.30;;
67869;SDS011;54673;52.262;6.830;2022-10-16T14:56:34;2.97;;;1.30;;
67869;SDS011;54673;52.262;6.830;2022-10-16T14:59:28;3.03;;;1.43;;
67869;SDS011;54673;52.262;6.830;2022-10-16T15:04:46;2.80;;;1.40;;
67869;SDS011;54673;52.262;6.830;2022-10-16T15:07:11;4.10;;;1.50;;
67869;SDS011;54673;52.262;6.830;2022-10-16T15:09:37;2.60;;;1.40;;
67869;SDS011;54673;52.262;6.830;2022-10-16T15:12:03;2.72;;;1.30;;
67869;SDS011;54673;52.262;6.830;2022-10-16T15:14:28;4.07;;;1.43;;
67869;SDS011;54673;52.262;6.830;2022-10-16T15:16:54;2.80;;;1.60;;
67869;SDS011;54673;52.262;6.830;2022-10-16T15:19:20;3.47;;;1.20;;
67869;SDS011;54673;52.262;6.830;2022-10-16T15:21:45;2.20;;;1.40;;
67869;SDS011;54673;52.262;6.830;2022-10-16T15:24:12;8.90;;;1.63;;
67869;SDS011;54673;52.262;6.830;2022-10-16T15:26:38;2.17;;;1.23;;
67869;SDS011;54673;52.262;6.830;2022-10-16T15:29:04;2.10;;;1.27;;
67869;SDS011;54673;52.262;6.830;2022-10-16T15:31:30;3.85;;;1.20;;
67869;SDS011;54673;52.262;6.830;2022-10-16T15:33:55;2.57;;;1.33;;
67869;SDS011;54673;52.262;6.830;2022-10-16T15:36:36;2.10;;;1.30;;
67869;SDS011;54673;52.262;6.830;2022-10-16T15:39:10;4.22;;;1.20;;
67869;SDS011;54673;52.262;6.830;2022-10-16T15:41:38;4.30;;;1.70;;
67869;SDS011;54673;52.262;6.830;2022-10-16T15:44:04;2.25;;;1.20;;
67869;SDS011;54673;52.262;6.830;2022-10-16T15:46:30;2.67;;;1.40;;
67869;SDS011;54673;52.262;6.830;2022-10-16T15:48:56;2.85;;;1.40;;
67869;SDS011;54673;52.262;6.830;2022-10-16T15:51:23;2.10;;;1.00;;
67869;SDS011;54673;52.262;6.830;2022-10-16T15:53:49;3.77;;;1.60;;
67869;SDS011;54673;52.262;6.830;2022-10-16T15:56:16;1.88;;;1.23;;
67869;SDS011;54673;52.262;6.830;2022-10-16T15:58:42;2.40;;;1.20;;
67869;SDS011;54673;52.262;6.830;2022-10-16T16:01:08;1.77;;;1.10;;
67869;SDS011;54673;52.262;6.830;2022-10-16T16:03:36;2.60;;;1.30;;
67869;SDS011;54673;52.262;6.830;2022-10-16T16:06:05;3.50;;;1.60;;
67869;SDS011;54673;52.262;6.830;2022-10-16T16:08:32;2.13;;;1.17;;
67869;SDS011;54673;52.262;6.830;2022-10-16T16:10:59;6.10;;;1.45;;
67869;SDS011;54673;52.262;6.830;2022-10-16T16:13:35;3.20;;;1.80;;
67869;SDS011;54673;52.262;6.830;2022-10-16T16:16:08;5.30;;;2.33;;
67869;SDS011;54673;52.262;6.830;2022-10-16T16:18:36;3.95;;;1.73;;
67869;SDS011;54673;52.262;6.830;2022-10-16T16:21:02;8.07;;;3.50;;
67869;SDS011;54673;52.262;6.830;2022-10-16T16:23:28;7.50;;;3.40;;
67869;SDS011;54673;52.262;6.830;2022-10-16T16:28:40;7.97;;;3.45;;
67869;SDS011;54673;52.262;6.830;2022-10-16T16:31:07;11.77;;;3.33;;
67869;SDS011;54673;52.262;6.830;2022-10-16T16:33:33;12.73;;;3.67;;
67869;SDS011;54673;52.262;6.830;2022-10-16T16:36:00;11.15;;;2.90;;
67869;SDS011;54673;52.262;6.830;2022-10-16T16:38:27;9.83;;;3.10;;
67869;SDS011;54673;52.262;6.830;2022-10-16T16:40:54;7.85;;;2.90;;
67869;SDS011;54673;52.262;6.830;2022-10-16T16:43:22;8.00;;;2.58;;
67869;SDS011;54673;52.262;6.830;2022-10-16T16:45:51;10.03;;;3.00;;
67869;SDS011;54673;52.262;6.830;2022-10-16T16:48:18;10.18;;;4.25;;
67869;SDS011;54673;52.262;6.830;2022-10-16T16:50:43;6.77;;;3.00;;
67869;SDS011;54673;52.262;6.830;2022-10-16T16:53:09;6.13;;;2.67;;
67869;SDS011;54673;52.262;6.830;2022-10-16T16:55:35;9.57;;;3.10;;
67869;SDS011;54673;52.262;6.830;2022-10-16T16:58:00;7.80;;;2.85;;
67869;SDS011;54673;52.262;6.830;2022-10-16T17:00:27;10.63;;;3.27;;
67869;SDS011;54673;52.262;6.830;2022-10-16T17:02:53;7.53;;;2.33;;
67869;SDS011;54673;52.262;6.830;2022-10-16T17:05:19;6.13;;;2.73;;
67869;SDS011;54673;52.262;6.830;2022-10-16T17:07:44;8.60;;;2.67;;
67869;SDS011;54673;52.262;6.830;2022-10-16T17:10:10;7.53;;;2.93;;